sensor_id;sensor_type;location;lat;lon;timestamp;temperature;humidity
41294;DHT22;27037;52.010;4.446;2023-06-26T00:00:27;23.90;84.10
41294;DHT22;27037;52.010;4.446;2023-06-26T00:02:52;23.90;85.60
41294;DHT22;27037;52.010;4.446;2023-06-26T00:05:18;23.80;87.20
41294;DHT22;27037;52.010;4.446;2023-06-26T00:07:44;23.70;89.00
41294;DHT22;27037;52.010;4.446;2023-06-26T00:10:10;23.60;90.20
41294;DHT22;27037;52.010;4.446;2023-06-26T00:12:35;23.60;91.30
41294;DHT22;27037;52.010;4.446;2023-06-26T00:15:01;23.40;92.40
41294;DHT22;27037;52.010;4.446;2023-06-26T00:17:27;23.40;93.40
41294;DHT22;27037;52.010;4.446;2023-06-26T00:19:53;23.30;94.50
41294;DHT22;27037;52.010;4.446;2023-06-26T00:22:18;23.30;95.50
41294;DHT22;27037;52.010;4.446;2023-06-26T00:24:44;23.20;96.60
41294;DHT22;27037;52.010;4.446;2023-06-26T00:27:10;23.10;97.80
41294;DHT22;27037;52.010;4.446;2023-06-26T00:29:36;23.00;99.10
41294;DHT22;27037;52.010;4.446;2023-06-26T00:32:01;22.90;99.90
41294;DHT22;27037;52.010;4.446;2023-06-26T00:34:27;22.80;99.90
41294;DHT22;27037;52.010;4.446;2023-06-26T00:36:53;22.80;99.90
41294;DHT22;27037;52.010;4.446;2023-06-26T00:39:18;22.70;99.90
41294;DHT22;27037;52.010;4.446;2023-06-26T00:41:44;22.60;99.90
41294;DHT22;27037;52.010;4.446;2023-06-26T00:44:10;22.60;99.90
41294;DHT22;27037;52.010;4.446;2023-06-26T00:46:35;22.50;99.90
41294;DHT22;27037;52.010;4.446;2023-06-26T00:49:03;22.30;99.90
41294;DHT22;27037;52.010;4.446;2023-06-26T00:51:29;22.30;99.90
41294;DHT22;27037;52.010;4.446;2023-06-26T00:53:56;22.20;99.90
41294;DHT22;27037;52.010;4.446;2023-06-26T00:56:23;22.20;99.90
41294;DHT22;27037;52.010;4.446;2023-06-26T00:58:49;22.10;99.90
41294;DHT22;27037;52.010;4.446;2023-06-26T01:01:15;22.10;99.90
41294;DHT22;27037;52.010;4.446;2023-06-26T01:03:44;22.00;99.90
41294;DHT22;27037;52.010;4.446;2023-06-26T01:06:11;22.00;99.90
41294;DHT22;27037;52.010;4.446;2023-06-26T01:08:39;21.90;99.90
41294;DHT22;27037;52.010;4.446;2023-06-26T01:11:05;21.90;99.90
41294;DHT22;27037;52.010;4.446;2023-06-26T01:13:31;22.00;99.90
41294;DHT22;27037;52.010;4.446;2023-06-26T01:15:58;21.90;99.90
41294;DHT22;27037;52.010;4.446;2023-06-26T01:18:25;21.90;99.90
41294;DHT22;27037;52.010;4.446;2023-06-26T01:20:52;21.90;99.90
41294;DHT22;27037;52.010;4.446;2023-06-26T01:26:19;21.90;99.90
41294;DHT22;27037;52.010;4.446;2023-06-26T01:28:46;21.90;99.90
41294;DHT22;27037;52.010;4.446;2023-06-26T01:31:13;21.80;99.90
41294;DHT22;27037;52.010;4.446;2023-06-26T01:33:40;21.90;99.90
41294;DHT22;27037;52.010;4.446;2023-06-26T01:36:07;21.90;99.90
41294;DHT22;27037;52.010;4.446;2023-06-26T01:38:33;21.90;99.90
41294;DHT22;27037;52.010;4.446;2023-06-26T01:40:59;21.90;99.90
41294;DHT22;27037;52.010;4.446;2023-06-26T01:46:18;21.90;99.90
41294;DHT22;27037;52.010;4.446;2023-06-26T01:49:09;21.80;99.90
41294;DHT22;27037;52.010;4.446;2023-06-26T01:51:43;21.80;99.90
41294;DHT22;27037;52.010;4.446;2023-06-26T01:54:14;21.80;99.90
41294;DHT22;27037;52.010;4.446;2023-06-26T01:56:42;21.70;99.90
41294;DHT22;27037;52.010;4.446;2023-06-26T01:59:11;21.80;99.90
41294;DHT22;27037;52.010;4.446;2023-06-26T02:01:39;21.80;99.90
41294;DHT22;27037;52.010;4.446;2023-06-26T02:04:05;21.80;99.90
41294;DHT22;27037;52.010;4.446;2023-06-26T02:06:30;21.80;99.90
41294;DHT22;27037;52.010;4.446;2023-06-26T02:08:56;21.80;99.90
41294;DHT22;27037;52.010;4.446;2023-06-26T02:11:22;21.70;99.90
41294;DHT22;27037;52.010;4.446;2023-06-26T02:13:48;21.70;99.90
41294;DHT22;27037;52.010;4.446;2023-06-26T02:16:14;21.60;99.90
41294;DHT22;27037;52.010;4.446;2023-06-26T02:18:39;21.60;99.90
41294;DHT22;27037;52.010;4.446;2023-06-26T02:21:06;21.50;99.90
41294;DHT22;27037;52.010;4.446;2023-06-26T02:23:32;21.50;99.90
41294;DHT22;27037;52.010;4.446;2023-06-26T02:25:57;21.50;99.90
41294;DHT22;27037;52.010;4.446;2023-06-26T02:28:23;21.40;99.90
41294;DHT22;27037;52.010;4.446;2023-06-26T02:30:49;21.40;99.90
41294;DHT22;27037;52.010;4.446;2023-06-26T02:33:14;21.30;99.90
41294;DHT22;27037;52.010;4.446;2023-06-26T02:35:40;21.30;99.90
41294;DHT22;27037;52.010;4.446;2023-06-26T02:38:06;21.20;99.90
41294;DHT22;27037;52.010;4.446;2023-06-26T02:40:32;21.20;99.90
41294;DHT22;27037;52.010;4.446;2023-06-26T02:42:58;21.20;99.90
41294;DHT22;27037;52.010;4.446;2023-06-26T02:45:24;21.10;99.90
41294;DHT22;27037;52.010;4.446;2023-06-26T02:47:49;21.10;99.90
41294;DHT22;27037;52.010;4.446;2023-06-26T02:50:15;21.10;99.90
41294;DHT22;27037;52.010;4.446;2023-06-26T02:52:41;21.00;99.90
41294;DHT22;27037;52.010;4.446;2023-06-26T02:55:06;20.90;99.90
41294;DHT22;27037;52.010;4.446;2023-06-26T02:57:32;20.90;99.90
41294;DHT22;27037;52.010;4.446;2023-06-26T02:59:58;20.80;99.90
41294;DHT22;27037;52.010;4.446;2023-06-26T03:02:23;20.80;99.90
41294;DHT22;27037;52.010;4.446;2023-06-26T03:04:49;20.70;99.90
41294;DHT22;27037;52.010;4.446;2023-06-26T03:07:15;20.60;99.90
41294;DHT22;27037;52.010;4.446;2023-06-26T03:09:41;20.60;99.90
41294;DHT22;27037;52.010;4.446;2023-06-26T03:12:07;20.60;99.90
41294;DHT22;27037;52.010;4.446;2023-06-26T03:14:33;20.60;99.90
41294;DHT22;27037;52.010;4.446;2023-06-26T03:16:59;20.60;99.90
41294;DHT22;27037;52.010;4.446;2023-06-26T03:19:28;20.60;99.90
41294;DHT22;27037;52.010;4.446;2023-06-26T03:21:54;20.50;99.90
41294;DHT22;27037;52.010;4.446;2023-06-26T03:24:20;20.50;99.90
41294;DHT22;27037;52.010;4.446;2023-06-26T03:26:46;20.50;99.90
41294;DHT22;27037;52.010;4.446;2023-06-26T03:29:11;20.60;99.90
41294;DHT22;27037;52.010;4.446;2023-06-26T03:31:37;20.50;99.90
41294;DHT22;27037;52.010;4.446;2023-06-26T03:34:03;20.50;99.90
41294;DHT22;27037;52.010;4.446;2023-06-26T03:36:28;20.50;99.90
41294;DHT22;27037;52.010;4.446;2023-06-26T03:38:54;20.40;99.90
41294;DHT22;27037;52.010;4.446;2023-06-26T03:41:22;20.40;99.90
41294;DHT22;27037;52.010;4.446;2023-06-26T03:43:48;20.40;99.90
41294;DHT22;27037;52.010;4.446;2023-06-26T03:46:14;20.40;99.90
41294;DHT22;27037;52.010;4.446;2023-06-26T03:48:40;20.30;99.90
41294;DHT22;27037;52.010;4.446;2023-06-26T03:51:06;20.30;99.90
41294;DHT22;27037;52.010;4.446;2023-06-26T03:53:33;20.30;99.90
41294;DHT22;27037;52.010;4.446;2023-06-26T03:55:58;20.30;99.90
41294;DHT22;27037;52.010;4.446;2023-06-26T03:58:24;20.30;99.90
41294;DHT22;27037;52.010;4.446;2023-06-26T04:00:51;20.20;99.90
41294;DHT22;27037;52.010;4.446;2023-06-26T04:03:16;20.20;99.90
41294;DHT22;27037;52.010;4.446;2023-06-26T04:05:42;20.20;99.90
41294;DHT22;27037;52.010;4.446;2023-06-26T04:08:08;20.10;99.90
41294;DHT22;27037;52.010;4.446;2023-06-26T04:10:34;20.10;99.90
41294;DHT22;27037;52.010;4.446;2023-06-26T04:13:01;20.10;99.90
41294;DHT22;27037;52.010;4.446;2023-06-26T04:15:27;20.10;99.90
41294;DHT22;27037;52.010;4.446;2023-06-26T04:17:52;20.00;99.90
41294;DHT22;27037;52.010;4.446;2023-06-26T04:20:18;20.00;99.90
41294;DHT22;27037;52.010;4.446;2023-06-26T04:22:44;20.00;99.90
41294;DHT22;27037;52.010;4.446;2023-06-26T04:25:09;20.00;99.90
41294;DHT22;27037;52.010;4.446;2023-06-26T04:27:37;20.00;99.90
41294;DHT22;27037;52.010;4.446;2023-06-26T04:30:03;20.10;99.90
41294;DHT22;27037;52.010;4.446;2023-06-26T04:32:29;20.00;99.90
41294;DHT22;27037;52.010;4.446;2023-06-26T04:34:54;20.00;99.90
41294;DHT22;27037;52.010;4.446;2023-06-26T04:37:20;20.00;99.90
41294;DHT22;27037;52.010;4.446;2023-06-26T04:39:45;20.10;99.90
41294;DHT22;27037;52.010;4.446;2023-06-26T04:42:11;20.10;99.90
41294;DHT22;27037;52.010;4.446;2023-06-26T04:44:37;20.00;99.90
41294;DHT22;27037;52.010;4.446;2023-06-26T04:47:03;20.10;99.90
41294;DHT22;27037;52.010;4.446;2023-06-26T04:49:29;20.00;99.90
41294;DHT22;27037;52.010;4.446;2023-06-26T04:51:56;20.10;99.90
41294;DHT22;27037;52.010;4.446;2023-06-26T04:54:21;20.00;99.90
41294;DHT22;27037;52.010;4.446;2023-06-26T04:56:48;20.00;99.90
41294;DHT22;27037;52.010;4.446;2023-06-26T04:59:13;20.00;99.90
41294;DHT22;27037;52.010;4.446;2023-06-26T05:01:40;20.00;99.90
41294;DHT22;27037;52.010;4.446;2023-06-26T05:04:06;20.00;99.90
41294;DHT22;27037;52.010;4.446;2023-06-26T05:06:32;19.90;99.90
41294;DHT22;27037;52.010;4.446;2023-06-26T05:08:57;19.90;99.90
41294;DHT22;27037;52.010;4.446;2023-06-26T05:11:24;20.00;99.90
41294;DHT22;27037;52.010;4.446;2023-06-26T05:13:50;20.00;99.90
41294;DHT22;27037;52.010;4.446;2023-06-26T05:16:16;20.00;99.90
41294;DHT22;27037;52.010;4.446;2023-06-26T05:18:41;20.00;99.90
41294;DHT22;27037;52.010;4.446;2023-06-26T05:21:07;20.00;99.90
41294;DHT22;27037;52.010;4.446;2023-06-26T05:23:34;20.00;99.90
41294;DHT22;27037;52.010;4.446;2023-06-26T05:26:03;20.10;99.90
41294;DHT22;27037;52.010;4.446;2023-06-26T05:28:29;20.10;99.90
41294;DHT22;27037;52.010;4.446;2023-06-26T05:30:57;20.10;99.90
41294;DHT22;27037;52.010;4.446;2023-06-26T05:33:24;20.10;99.90
41294;DHT22;27037;52.010;4.446;2023-06-26T05:35:52;20.10;99.90
41294;DHT22;27037;52.010;4.446;2023-06-26T05:38:18;20.20;99.90
41294;DHT22;27037;52.010;4.446;2023-06-26T05:40:44;20.10;99.90
41294;DHT22;27037;52.010;4.446;2023-06-26T05:43:10;20.00;99.90
41294;DHT22;27037;52.010;4.446;2023-06-26T05:45:36;20.00;99.90
41294;DHT22;27037;52.010;4.446;2023-06-26T05:48:02;19.90;99.90
41294;DHT22;27037;52.010;4.446;2023-06-26T05:50:28;19.90;99.90
41294;DHT22;27037;52.010;4.446;2023-06-26T05:52:54;19.80;99.90
41294;DHT22;27037;52.010;4.446;2023-06-26T05:55:20;19.90;99.90
41294;DHT22;27037;52.010;4.446;2023-06-26T05:57:46;19.90;99.90
41294;DHT22;27037;52.010;4.446;2023-06-26T06:00:13;19.90;99.90
41294;DHT22;27037;52.010;4.446;2023-06-26T06:02:39;19.90;99.90
41294;DHT22;27037;52.010;4.446;2023-06-26T06:05:07;19.80;99.90
41294;DHT22;27037;52.010;4.446;2023-06-26T06:07:33;19.80;99.90
41294;DHT22;27037;52.010;4.446;2023-06-26T06:09:59;19.70;99.90
41294;DHT22;27037;52.010;4.446;2023-06-26T06:12:25;19.70;99.90
41294;DHT22;27037;52.010;4.446;2023-06-26T06:14:52;19.70;99.90
41294;DHT22;27037;52.010;4.446;2023-06-26T06:17:18;19.80;99.90
41294;DHT22;27037;52.010;4.446;2023-06-26T06:19:44;19.90;99.90
41294;DHT22;27037;52.010;4.446;2023-06-26T06:22:10;20.00;99.90
41294;DHT22;27037;52.010;4.446;2023-06-26T06:24:35;20.00;99.90
41294;DHT22;27037;52.010;4.446;2023-06-26T06:27:01;19.90;99.90
41294;DHT22;27037;52.010;4.446;2023-06-26T06:29:27;19.80;99.90
41294;DHT22;27037;52.010;4.446;2023-06-26T06:31:52;19.80;99.90
41294;DHT22;27037;52.010;4.446;2023-06-26T06:34:18;19.80;99.90
41294;DHT22;27037;52.010;4.446;2023-06-26T06:36:43;19.80;99.90
41294;DHT22;27037;52.010;4.446;2023-06-26T06:39:09;19.90;99.90
41294;DHT22;27037;52.010;4.446;2023-06-26T06:41:35;20.00;99.90
41294;DHT22;27037;52.010;4.446;2023-06-26T06:44:00;20.10;99.90
41294;DHT22;27037;52.010;4.446;2023-06-26T06:46:26;20.10;99.90
41294;DHT22;27037;52.010;4.446;2023-06-26T06:48:53;20.20;99.90
41294;DHT22;27037;52.010;4.446;2023-06-26T06:51:18;20.30;99.90
41294;DHT22;27037;52.010;4.446;2023-06-26T06:53:44;20.40;99.90
41294;DHT22;27037;52.010;4.446;2023-06-26T06:56:10;20.40;99.90
41294;DHT22;27037;52.010;4.446;2023-06-26T06:58:35;20.50;99.90
41294;DHT22;27037;52.010;4.446;2023-06-26T07:01:01;20.50;99.90
41294;DHT22;27037;52.010;4.446;2023-06-26T07:03:28;20.50;99.90
41294;DHT22;27037;52.010;4.446;2023-06-26T07:05:55;20.50;99.90
41294;DHT22;27037;52.010;4.446;2023-06-26T07:08:20;20.50;99.90
41294;DHT22;27037;52.010;4.446;2023-06-26T07:10:46;20.40;99.90
41294;DHT22;27037;52.010;4.446;2023-06-26T07:13:12;20.30;99.90
41294;DHT22;27037;52.010;4.446;2023-06-26T07:15:37;20.30;99.90
41294;DHT22;27037;52.010;4.446;2023-06-26T07:18:04;20.40;99.90
41294;DHT22;27037;52.010;4.446;2023-06-26T07:20:29;20.40;99.90
41294;DHT22;27037;52.010;4.446;2023-06-26T07:22:55;20.50;99.90
41294;DHT22;27037;52.010;4.446;2023-06-26T07:25:21;20.50;99.90
41294;DHT22;27037;52.010;4.446;2023-06-26T07:27:46;20.60;99.90
41294;DHT22;27037;52.010;4.446;2023-06-26T07:30:12;20.70;99.90
41294;DHT22;27037;52.010;4.446;2023-06-26T07:32:38;20.80;99.90
41294;DHT22;27037;52.010;4.446;2023-06-26T07:35:05;20.80;99.90
41294;DHT22;27037;52.010;4.446;2023-06-26T07:37:31;20.90;99.90
41294;DHT22;27037;52.010;4.446;2023-06-26T07:39:57;21.00;99.90
41294;DHT22;27037;52.010;4.446;2023-06-26T07:42:22;21.20;99.90
41294;DHT22;27037;52.010;4.446;2023-06-26T07:44:48;21.30;99.90
41294;DHT22;27037;52.010;4.446;2023-06-26T07:47:14;21.30;99.90
41294;DHT22;27037;52.010;4.446;2023-06-26T07:49:40;21.40;99.90
41294;DHT22;27037;52.010;4.446;2023-06-26T07:52:06;21.40;99.90
41294;DHT22;27037;52.010;4.446;2023-06-26T07:54:32;21.50;99.90
41294;DHT22;27037;52.010;4.446;2023-06-26T07:57:02;21.60;99.90
41294;DHT22;27037;52.010;4.446;2023-06-26T07:59:29;21.70;99.90
41294;DHT22;27037;52.010;4.446;2023-06-26T08:01:56;21.90;99.90
41294;DHT22;27037;52.010;4.446;2023-06-26T08:04:24;21.90;99.90
41294;DHT22;27037;52.010;4.446;2023-06-26T08:06:51;22.00;99.90
41294;DHT22;27037;52.010;4.446;2023-06-26T08:09:19;22.00;99.90
41294;DHT22;27037;52.010;4.446;2023-06-26T08:11:45;22.10;99.90
41294;DHT22;27037;52.010;4.446;2023-06-26T08:14:11;22.10;99.90
41294;DHT22;27037;52.010;4.446;2023-06-26T08:16:40;22.20;99.90
41294;DHT22;27037;52.010;4.446;2023-06-26T08:19:06;22.40;99.90
41294;DHT22;27037;52.010;4.446;2023-06-26T08:21:31;22.40;99.90
41294;DHT22;27037;52.010;4.446;2023-06-26T08:23:57;22.50;99.90
41294;DHT22;27037;52.010;4.446;2023-06-26T08:26:23;22.40;99.90
41294;DHT22;27037;52.010;4.446;2023-06-26T08:28:48;22.40;99.90
41294;DHT22;27037;52.010;4.446;2023-06-26T08:31:14;22.40;99.90
41294;DHT22;27037;52.010;4.446;2023-06-26T08:33:40;22.50;99.90
41294;DHT22;27037;52.010;4.446;2023-06-26T08:36:05;22.60;99.90
41294;DHT22;27037;52.010;4.446;2023-06-26T08:38:31;22.60;99.90
41294;DHT22;27037;52.010;4.446;2023-06-26T08:40:56;22.70;99.90
41294;DHT22;27037;52.010;4.446;2023-06-26T08:43:22;22.60;99.90
41294;DHT22;27037;52.010;4.446;2023-06-26T08:45:48;22.60;99.90
41294;DHT22;27037;52.010;4.446;2023-06-26T08:48:17;22.60;99.90
41294;DHT22;27037;52.010;4.446;2023-06-26T08:50:43;22.80;99.90
41294;DHT22;27037;52.010;4.446;2023-06-26T08:55:53;23.00;98.60
41294;DHT22;27037;52.010;4.446;2023-06-26T08:58:20;23.20;98.00
41294;DHT22;27037;52.010;4.446;2023-06-26T09:00:46;23.20;97.70
41294;DHT22;27037;52.010;4.446;2023-06-26T09:03:12;23.20;97.10
41294;DHT22;27037;52.010;4.446;2023-06-26T09:05:39;23.20;97.10
41294;DHT22;27037;52.010;4.446;2023-06-26T09:08:04;23.30;97.40
41294;DHT22;27037;52.010;4.446;2023-06-26T09:10:30;23.40;97.20
41294;DHT22;27037;52.010;4.446;2023-06-26T09:12:56;23.30;97.20
41294;DHT22;27037;52.010;4.446;2023-06-26T09:15:23;23.20;97.30
41294;DHT22;27037;52.010;4.446;2023-06-26T09:17:49;23.10;97.40
41294;DHT22;27037;52.010;4.446;2023-06-26T09:20:15;23.00;97.20
41294;DHT22;27037;52.010;4.446;2023-06-26T09:22:43;23.10;97.70
41294;DHT22;27037;52.010;4.446;2023-06-26T09:25:09;23.20;97.20
41294;DHT22;27037;52.010;4.446;2023-06-26T09:27:36;23.30;97.20
41294;DHT22;27037;52.010;4.446;2023-06-26T09:30:05;23.50;97.30
41294;DHT22;27037;52.010;4.446;2023-06-26T09:32:36;23.60;96.90
41294;DHT22;27037;52.010;4.446;2023-06-26T09:35:03;23.50;96.80
41294;DHT22;27037;52.010;4.446;2023-06-26T09:37:29;23.40;96.80
41294;DHT22;27037;52.010;4.446;2023-06-26T09:39:55;23.40;96.70
41294;DHT22;27037;52.010;4.446;2023-06-26T09:42:22;23.50;96.70
41294;DHT22;27037;52.010;4.446;2023-06-26T09:44:48;23.70;96.40
41294;DHT22;27037;52.010;4.446;2023-06-26T09:47:18;23.70;96.10
41294;DHT22;27037;52.010;4.446;2023-06-26T09:49:45;23.70;96.10
41294;DHT22;27037;52.010;4.446;2023-06-26T09:52:15;23.60;95.90
41294;DHT22;27037;52.010;4.446;2023-06-26T09:54:42;23.70;95.80
41294;DHT22;27037;52.010;4.446;2023-06-26T09:57:17;23.60;95.10
41294;DHT22;27037;52.010;4.446;2023-06-26T09:59:44;23.50;95.00
41294;DHT22;27037;52.010;4.446;2023-06-26T10:02:11;23.50;95.10
41294;DHT22;27037;52.010;4.446;2023-06-26T10:04:37;23.70;95.10
41294;DHT22;27037;52.010;4.446;2023-06-26T10:07:06;23.80;94.30
41294;DHT22;27037;52.010;4.446;2023-06-26T10:09:35;23.90;93.70
41294;DHT22;27037;52.010;4.446;2023-06-26T10:12:07;24.00;93.30
41294;DHT22;27037;52.010;4.446;2023-06-26T10:14:37;23.90;93.10
41294;DHT22;27037;52.010;4.446;2023-06-26T10:17:16;23.90;93.10
41294;DHT22;27037;52.010;4.446;2023-06-26T10:19:45;24.00;92.70
41294;DHT22;27037;52.010;4.446;2023-06-26T10:22:16;24.00;92.40
41294;DHT22;27037;52.010;4.446;2023-06-26T10:24:43;23.90;91.90
41294;DHT22;27037;52.010;4.446;2023-06-26T10:27:14;23.80;91.30
41294;DHT22;27037;52.010;4.446;2023-06-26T10:29:40;23.90;91.10
41294;DHT22;27037;52.010;4.446;2023-06-26T10:32:07;24.00;91.30
41294;DHT22;27037;52.010;4.446;2023-06-26T10:34:33;24.10;90.70
41294;DHT22;27037;52.010;4.446;2023-06-26T10:37:00;24.20;90.40
41294;DHT22;27037;52.010;4.446;2023-06-26T10:39:26;24.30;90.10
41294;DHT22;27037;52.010;4.446;2023-06-26T10:41:54;24.30;88.50
41294;DHT22;27037;52.010;4.446;2023-06-26T10:44:21;24.20;88.90
41294;DHT22;27037;52.010;4.446;2023-06-26T10:46:54;24.10;88.40
41294;DHT22;27037;52.010;4.446;2023-06-26T10:49:26;24.20;87.80
41294;DHT22;27037;52.010;4.446;2023-06-26T10:51:53;24.10;87.50
41294;DHT22;27037;52.010;4.446;2023-06-26T10:54:21;23.90;87.00
41294;DHT22;27037;52.010;4.446;2023-06-26T10:56:48;23.80;87.40
41294;DHT22;27037;52.010;4.446;2023-06-26T10:59:28;23.60;88.00
41294;DHT22;27037;52.010;4.446;2023-06-26T11:02:05;23.50;89.00
41294;DHT22;27037;52.010;4.446;2023-06-26T11:04:47;23.60;89.20
41294;DHT22;27037;52.010;4.446;2023-06-26T11:07:22;23.90;87.20
41294;DHT22;27037;52.010;4.446;2023-06-26T11:10:00;24.00;86.60
41294;DHT22;27037;52.010;4.446;2023-06-26T11:12:40;24.20;85.00
41294;DHT22;27037;52.010;4.446;2023-06-26T11:15:13;24.00;85.00
41294;DHT22;27037;52.010;4.446;2023-06-26T11:17:40;23.90;85.50
41294;DHT22;27037;52.010;4.446;2023-06-26T11:20:07;23.80;85.80
41294;DHT22;27037;52.010;4.446;2023-06-26T11:22:37;23.70;85.60
41294;DHT22;27037;52.010;4.446;2023-06-26T11:25:03;23.70;86.50
41294;DHT22;27037;52.010;4.446;2023-06-26T11:30:04;23.60;86.30
41294;DHT22;27037;52.010;4.446;2023-06-26T11:32:30;23.60;86.50
41294;DHT22;27037;52.010;4.446;2023-06-26T11:34:58;23.60;86.20
41294;DHT22;27037;52.010;4.446;2023-06-26T11:37:25;23.60;85.60
41294;DHT22;27037;52.010;4.446;2023-06-26T11:39:51;23.60;85.10
41294;DHT22;27037;52.010;4.446;2023-06-26T11:42:17;23.70;82.70
41294;DHT22;27037;52.010;4.446;2023-06-26T11:44:43;23.70;82.30
41294;DHT22;27037;52.010;4.446;2023-06-26T11:47:19;23.80;81.90
41294;DHT22;27037;52.010;4.446;2023-06-26T11:49:46;23.90;80.70
41294;DHT22;27037;52.010;4.446;2023-06-26T11:52:18;24.00;80.30
41294;DHT22;27037;52.010;4.446;2023-06-26T11:54:44;24.10;80.50
41294;DHT22;27037;52.010;4.446;2023-06-26T11:57:14;24.40;80.20
41294;DHT22;27037;52.010;4.446;2023-06-26T11:59:41;24.60;78.90
41294;DHT22;27037;52.010;4.446;2023-06-26T12:02:10;24.70;78.30
41294;DHT22;27037;52.010;4.446;2023-06-26T12:04:37;24.70;77.40
41294;DHT22;27037;52.010;4.446;2023-06-26T12:07:05;24.60;77.00
41294;DHT22;27037;52.010;4.446;2023-06-26T12:09:33;24.30;77.00
41294;DHT22;27037;52.010;4.446;2023-06-26T12:11:59;24.10;77.90
41294;DHT22;27037;52.010;4.446;2023-06-26T12:14:25;24.10;78.90
41294;DHT22;27037;52.010;4.446;2023-06-26T12:16:54;24.20;78.10
41294;DHT22;27037;52.010;4.446;2023-06-26T12:19:24;24.10;78.20
41294;DHT22;27037;52.010;4.446;2023-06-26T12:21:52;24.10;78.60
41294;DHT22;27037;52.010;4.446;2023-06-26T12:24:22;24.00;78.70
41294;DHT22;27037;52.010;4.446;2023-06-26T12:26:53;24.00;79.30
41294;DHT22;27037;52.010;4.446;2023-06-26T12:29:21;24.10;79.70
41294;DHT22;27037;52.010;4.446;2023-06-26T12:31:52;24.20;78.70
41294;DHT22;27037;52.010;4.446;2023-06-26T12:34:26;24.10;79.30
41294;DHT22;27037;52.010;4.446;2023-06-26T12:36:53;24.20;78.80
41294;DHT22;27037;52.010;4.446;2023-06-26T12:39:24;24.40;78.60
41294;DHT22;27037;52.010;4.446;2023-06-26T12:41:55;24.50;77.90
41294;DHT22;27037;52.010;4.446;2023-06-26T12:44:22;24.50;76.80
41294;DHT22;27037;52.010;4.446;2023-06-26T12:46:58;24.50;76.30
41294;DHT22;27037;52.010;4.446;2023-06-26T12:52:00;24.10;75.60
41294;DHT22;27037;52.010;4.446;2023-06-26T12:54:26;24.10;76.40
41294;DHT22;27037;52.010;4.446;2023-06-26T12:56:52;24.30;76.40
41294;DHT22;27037;52.010;4.446;2023-06-26T12:59:18;24.40;76.40
41294;DHT22;27037;52.010;4.446;2023-06-26T13:01:43;24.40;75.70
41294;DHT22;27037;52.010;4.446;2023-06-26T13:04:09;24.20;75.00
41294;DHT22;27037;52.010;4.446;2023-06-26T13:06:36;24.00;75.50
41294;DHT22;27037;52.010;4.446;2023-06-26T13:09:02;23.70;76.90
41294;DHT22;27037;52.010;4.446;2023-06-26T13:11:31;23.60;77.70
41294;DHT22;27037;52.010;4.446;2023-06-26T13:13:57;23.60;77.20
41294;DHT22;27037;52.010;4.446;2023-06-26T13:16:23;23.50;78.10
41294;DHT22;27037;52.010;4.446;2023-06-26T13:18:49;23.60;78.60
41294;DHT22;27037;52.010;4.446;2023-06-26T13:21:15;23.70;78.80
41294;DHT22;27037;52.010;4.446;2023-06-26T13:23:42;23.80;78.20
41294;DHT22;27037;52.010;4.446;2023-06-26T13:26:08;23.90;76.70
41294;DHT22;27037;52.010;4.446;2023-06-26T13:28:34;24.00;76.70
41294;DHT22;27037;52.010;4.446;2023-06-26T13:30:59;24.20;75.80
41294;DHT22;27037;52.010;4.446;2023-06-26T13:33:25;24.30;74.60
41294;DHT22;27037;52.010;4.446;2023-06-26T13:35:53;24.30;74.00
41294;DHT22;27037;52.010;4.446;2023-06-26T13:38:20;24.50;74.50
41294;DHT22;27037;52.010;4.446;2023-06-26T13:40:53;24.50;73.50
41294;DHT22;27037;52.010;4.446;2023-06-26T13:43:20;24.50;73.80
41294;DHT22;27037;52.010;4.446;2023-06-26T13:45:47;24.60;74.00
41294;DHT22;27037;52.010;4.446;2023-06-26T13:48:12;24.60;74.00
41294;DHT22;27037;52.010;4.446;2023-06-26T13:50:38;24.70;72.80
41294;DHT22;27037;52.010;4.446;2023-06-26T13:53:04;24.60;72.90
41294;DHT22;27037;52.010;4.446;2023-06-26T13:55:29;24.50;71.70
41294;DHT22;27037;52.010;4.446;2023-06-26T13:57:56;24.40;72.60
41294;DHT22;27037;52.010;4.446;2023-06-26T14:00:22;24.40;72.40
41294;DHT22;27037;52.010;4.446;2023-06-26T14:02:48;24.20;72.80
41294;DHT22;27037;52.010;4.446;2023-06-26T14:05:14;24.10;73.60
41294;DHT22;27037;52.010;4.446;2023-06-26T14:07:40;24.10;74.20
41294;DHT22;27037;52.010;4.446;2023-06-26T14:10:06;24.20;73.60
41294;DHT22;27037;52.010;4.446;2023-06-26T14:12:32;24.30;71.80
41294;DHT22;27037;52.010;4.446;2023-06-26T14:14:58;24.50;71.00
41294;DHT22;27037;52.010;4.446;2023-06-26T14:17:24;24.50;69.70
41294;DHT22;27037;52.010;4.446;2023-06-26T14:19:52;24.60;69.80
41294;DHT22;27037;52.010;4.446;2023-06-26T14:22:18;24.60;68.80
41294;DHT22;27037;52.010;4.446;2023-06-26T14:24:43;24.70;69.20
41294;DHT22;27037;52.010;4.446;2023-06-26T14:27:09;24.70;70.00
41294;DHT22;27037;52.010;4.446;2023-06-26T14:29:38;24.70;70.50
41294;DHT22;27037;52.010;4.446;2023-06-26T14:32:05;24.70;70.90
41294;DHT22;27037;52.010;4.446;2023-06-26T14:34:31;24.50;71.20
41294;DHT22;27037;52.010;4.446;2023-06-26T14:36:57;24.30;71.50
41294;DHT22;27037;52.010;4.446;2023-06-26T14:39:22;24.30;71.30
41294;DHT22;27037;52.010;4.446;2023-06-26T14:41:48;24.20;71.70
41294;DHT22;27037;52.010;4.446;2023-06-26T14:44:14;24.10;71.70
41294;DHT22;27037;52.010;4.446;2023-06-26T14:46:40;24.10;72.30
41294;DHT22;27037;52.010;4.446;2023-06-26T14:49:06;24.10;73.00
41294;DHT22;27037;52.010;4.446;2023-06-26T14:51:31;24.20;73.10
41294;DHT22;27037;52.010;4.446;2023-06-26T14:53:57;24.40;72.30
41294;DHT22;27037;52.010;4.446;2023-06-26T14:56:23;24.60;72.70
41294;DHT22;27037;52.010;4.446;2023-06-26T14:58:49;24.80;72.00
41294;DHT22;27037;52.010;4.446;2023-06-26T15:01:16;24.80;71.40
41294;DHT22;27037;52.010;4.446;2023-06-26T15:03:44;24.90;71.50
41294;DHT22;27037;52.010;4.446;2023-06-26T15:06:10;24.80;71.30
41294;DHT22;27037;52.010;4.446;2023-06-26T15:08:36;24.80;71.40
41294;DHT22;27037;52.010;4.446;2023-06-26T15:11:02;24.70;71.70
41294;DHT22;27037;52.010;4.446;2023-06-26T15:13:28;24.70;72.00
41294;DHT22;27037;52.010;4.446;2023-06-26T15:15:54;24.80;71.50
41294;DHT22;27037;52.010;4.446;2023-06-26T15:18:19;24.70;71.30
41294;DHT22;27037;52.010;4.446;2023-06-26T15:20:45;24.70;71.60
41294;DHT22;27037;52.010;4.446;2023-06-26T15:23:11;24.80;71.30
41294;DHT22;27037;52.010;4.446;2023-06-26T15:25:36;24.90;71.20
41294;DHT22;27037;52.010;4.446;2023-06-26T15:28:03;24.90;70.40
41294;DHT22;27037;52.010;4.446;2023-06-26T15:30:29;24.90;70.40
41294;DHT22;27037;52.010;4.446;2023-06-26T15:32:55;24.60;71.30
41294;DHT22;27037;52.010;4.446;2023-06-26T15:35:20;24.60;72.20
41294;DHT22;27037;52.010;4.446;2023-06-26T15:37:46;24.50;72.30
41294;DHT22;27037;52.010;4.446;2023-06-26T15:40:12;24.60;72.70